createdAt,value
2022-12-03T00:02:00.810Z,94761.28
2022-12-03T00:04:27.404Z,94758.88
2022-12-03T00:06:53.951Z,94758.47
2022-12-03T00:09:20.581Z,94755.88
2022-12-03T00:11:48.450Z,94757.28
2022-12-03T00:14:14.965Z,94761.28
2022-12-03T00:16:41.442Z,94759.47
2022-12-03T00:19:08.061Z,94749.66
2022-12-03T00:21:34.733Z,94747.88
2022-12-03T00:24:01.336Z,94754.28
2022-12-03T00:26:27.837Z,94753.09
2022-12-03T00:28:55.805Z,94747.69
2022-12-03T00:31:23.531Z,94748.66
2022-12-03T00:33:50.223Z,94740.00
2022-12-03T00:36:16.755Z,94747.00
2022-12-03T00:38:43.425Z,94745.56
2022-12-03T00:41:09.949Z,94742.53
2022-12-03T00:43:36.495Z,94742.34
2022-12-03T00:46:04.488Z,94750.19
2022-12-03T00:48:31.045Z,94744.97
2022-12-03T00:50:57.644Z,94746.16
2022-12-03T00:53:24.161Z,94761.38
2022-12-03T00:55:51.756Z,94755.56
2022-12-03T00:58:18.283Z,94749.75
2022-12-03T01:00:44.788Z,94749.16
2022-12-03T01:03:12.716Z,94742.97
2022-12-03T01:05:39.203Z,94744.41
2022-12-03T01:10:46.201Z,94742.78
2022-12-03T01:13:12.660Z,94747.00
2022-12-03T01:15:39.166Z,94750.84
2022-12-03T01:18:05.723Z,94753.63
2022-12-03T01:20:33.762Z,94755.25
2022-12-03T01:23:00.253Z,94749.03
2022-12-03T01:25:26.782Z,94746.22
2022-12-03T01:27:53.424Z,94746.00
2022-12-03T01:30:20.146Z,94742.78
2022-12-03T01:32:46.669Z,94749.63
2022-12-03T01:35:13.167Z,94743.59
2022-12-03T01:37:40.978Z,94750.22
2022-12-03T01:40:07.994Z,94745.00
2022-12-03T01:42:36.779Z,94740.56
2022-12-03T01:45:04.104Z,94739.97
2022-12-03T01:47:32.134Z,94745.63
2022-12-03T01:50:01.622Z,94754.06
2022-12-03T01:52:30.307Z,94754.47
2022-12-03T01:54:59.386Z,94750.66
2022-12-03T01:57:28.004Z,94735.44
2022-12-03T01:59:55.684Z,94737.25
2022-12-03T02:02:23.863Z,94738.66
2022-12-03T02:04:53.001Z,94741.91
2022-12-03T02:07:21.268Z,94740.88
2022-12-03T02:09:47.942Z,94742.47
2022-12-03T02:12:18.061Z,94748.69
2022-12-03T02:14:44.751Z,94745.72
2022-12-03T02:17:11.388Z,94741.72
2022-12-03T02:19:38.062Z,94752.72
2022-12-03T02:22:07.995Z,94760.16
2022-12-03T02:24:38.547Z,94756.53
2022-12-03T02:27:06.419Z,94752.91
2022-12-03T02:29:32.900Z,94755.50
2022-12-03T02:31:59.531Z,94753.13
2022-12-03T02:34:33.133Z,94756.53
2022-12-03T02:36:59.738Z,94746.09
2022-12-03T02:39:26.389Z,94739.06
2022-12-03T02:42:11.696Z,94749.50
2022-12-03T02:44:39.725Z,94741.50
2022-12-03T02:47:06.407Z,94738.50
2022-12-03T02:49:33.024Z,94728.88
2022-12-03T02:51:59.622Z,94731.69
2022-12-03T02:54:26.150Z,94736.31
2022-12-03T02:56:52.674Z,94728.50
2022-12-03T02:59:19.216Z,94734.31
2022-12-03T03:01:47.540Z,94733.88
2022-12-03T03:04:14.136Z,94738.47
2022-12-03T03:06:40.645Z,94733.84
2022-12-03T03:09:07.157Z,94735.44
2022-12-03T03:11:33.722Z,94738.63
2022-12-03T03:14:00.980Z,94738.81
2022-12-03T03:16:27.564Z,94734.59
2022-12-03T03:18:55.498Z,94740.41
2022-12-03T03:21:21.960Z,94741.81
2022-12-03T03:23:48.504Z,94734.78
2022-12-03T03:26:16.471Z,94733.00
2022-12-03T03:28:44.212Z,94736.16
2022-12-03T03:31:12.595Z,94727.56
2022-12-03T03:33:40.774Z,94736.16
2022-12-03T03:36:09.337Z,94735.38
2022-12-03T03:38:36.739Z,94741.81
2022-12-03T03:41:05.867Z,94739.19
2022-12-03T03:43:34.800Z,94733.97
2022-12-03T03:46:01.887Z,94731.38
2022-12-03T03:48:28.560Z,94726.56
2022-12-03T03:50:55.791Z,94730.78
2022-12-03T03:53:24.407Z,94720.34
2022-12-03T03:55:51.197Z,94731.38
2022-12-03T03:58:17.790Z,94728.34
2022-12-03T04:00:45.150Z,94733.16
2022-12-03T04:03:11.676Z,94740.34
2022-12-03T04:05:38.409Z,94735.75
2022-12-03T04:08:05.056Z,94734.72
2022-12-03T04:10:51.380Z,94730.53
2022-12-03T04:13:17.841Z,94741.97
2022-12-03T04:15:44.492Z,94738.16
2022-12-03T04:18:29.576Z,94732.16
2022-12-03T04:21:16.039Z,94728.59
2022-12-03T04:23:42.666Z,94720.75
2022-12-03T04:26:28.960Z,94714.16
2022-12-03T04:28:55.415Z,94721.41
2022-12-03T04:31:40.779Z,94715.16
2022-12-03T04:34:25.818Z,94718.56
2022-12-03T04:36:52.396Z,94713.59
2022-12-03T04:39:19.093Z,94721.19
2022-12-03T04:41:46.976Z,94721.56
2022-12-03T04:44:32.183Z,94719.97
2022-12-03T04:46:58.897Z,94725.00
2022-12-03T04:49:25.442Z,94731.00
2022-12-03T04:51:52.107Z,94724.16
2022-12-03T04:54:18.835Z,94727.19
2022-12-03T04:56:47.056Z,94733.00
2022-12-03T04:59:16.458Z,94731.78
2022-12-03T05:01:43.315Z,94734.38
2022-12-03T05:04:10.275Z,94732.94
2022-12-03T05:06:36.763Z,94730.94
2022-12-03T05:09:03.409Z,94728.94
2022-12-03T05:11:30.077Z,94733.53
2022-12-03T05:13:57.933Z,94741.00
2022-12-03T05:16:24.547Z,94742.22
2022-12-03T05:18:51.029Z,94740.00
2022-12-03T05:21:17.508Z,94741.63
2022-12-03T05:23:44.141Z,94755.44
2022-12-03T05:26:10.934Z,94749.84
2022-12-03T05:28:37.432Z,94748.22
2022-12-03T05:31:05.825Z,94747.84
2022-12-03T05:33:32.741Z,94747.25
2022-12-03T05:35:59.202Z,94746.88
2022-12-03T05:38:25.694Z,94748.09
2022-12-03T05:40:52.191Z,94746.28
2022-12-03T05:43:18.661Z,94728.22
2022-12-03T05:45:45.359Z,94732.22
2022-12-03T05:48:15.057Z,94732.63
2022-12-03T05:50:45.448Z,94724.59
2022-12-03T05:53:16.355Z,94734.03
2022-12-03T05:55:42.960Z,94731.19
2022-12-03T05:58:09.642Z,94736.41
2022-12-03T06:00:42.396Z,94738.44
2022-12-03T06:03:10.059Z,94739.44
2022-12-03T06:05:38.342Z,94748.47
2022-12-03T06:08:05.065Z,94748.69
2022-12-03T06:10:31.692Z,94743.88
2022-12-03T06:12:58.305Z,94743.88
2022-12-03T06:15:24.967Z,94739.88
2022-12-03T06:17:51.529Z,94743.50
2022-12-03T06:20:19.948Z,94737.28
2022-12-03T06:22:48.119Z,94737.91
2022-12-03T06:25:14.835Z,94731.50
2022-12-03T06:27:41.344Z,94724.69
2022-12-03T06:30:09.018Z,94733.50
2022-12-03T06:32:35.916Z,94737.94
2022-12-03T06:35:02.424Z,94732.91
2022-12-03T06:37:28.979Z,94721.47
2022-12-03T06:39:57.040Z,94715.28
2022-12-03T06:42:23.723Z,94727.28
2022-12-03T06:44:50.257Z,94732.50
2022-12-03T06:47:16.947Z,94733.94
2022-12-03T06:49:43.540Z,94738.53
2022-12-03T06:52:10.228Z,94719.91
2022-12-03T06:54:36.886Z,94714.69
2022-12-03T06:57:04.856Z,94718.69
2022-12-03T06:59:34.727Z,94722.28
2022-12-03T07:02:01.313Z,94723.09
2022-12-03T07:04:28.419Z,94726.31
2022-12-03T07:06:55.153Z,94723.28
2022-12-03T07:09:21.760Z,94723.06
2022-12-03T07:11:48.248Z,94729.66
2022-12-03T07:14:16.127Z,94735.72
2022-12-03T07:16:43.779Z,94732.50
2022-12-03T07:19:10.843Z,94734.72
2022-12-03T07:21:37.616Z,94736.31
2022-12-03T07:24:04.167Z,94731.50
2022-12-03T07:26:30.823Z,94734.31
2022-12-03T07:28:57.358Z,94737.34
2022-12-03T07:31:25.717Z,94730.50
2022-12-03T07:33:52.403Z,94730.13
2022-12-03T07:36:18.892Z,94726.06
2022-12-03T07:38:45.364Z,94726.69
2022-12-03T07:41:11.890Z,94727.06
2022-12-03T07:43:38.427Z,94728.25
2022-12-03T07:46:04.996Z,94728.44
2022-12-03T07:48:32.917Z,94730.25
2022-12-03T07:50:59.469Z,94736.50
2022-12-03T07:53:25.960Z,94733.91
2022-12-03T07:55:52.504Z,94731.72
2022-12-03T07:58:19.062Z,94730.31
2022-12-03T08:00:45.551Z,94732.53
2022-12-03T08:03:12.234Z,94728.13
2022-12-03T08:05:40.215Z,94738.16
2022-12-03T08:08:06.826Z,94736.16
2022-12-03T08:10:33.523Z,94732.38
2022-12-03T08:13:00.057Z,94720.56
2022-12-03T08:15:29.334Z,94719.34
2022-12-03T08:18:00.326Z,94729.78
2022-12-03T08:20:29.043Z,94734.56
2022-12-03T08:22:57.389Z,94742.59
2022-12-03T08:25:25.227Z,94731.38
2022-12-03T08:27:53.683Z,94739.22
2022-12-03T08:30:20.508Z,94745.81
2022-12-03T08:32:47.314Z,94738.00
2022-12-03T08:35:21.937Z,94729.00
2022-12-03T08:37:50.005Z,94732.22
2022-12-03T08:40:22.420Z,94741.41
2022-12-03T08:42:49.051Z,94734.00
2022-12-03T08:45:40.856Z,94734.81
2022-12-03T08:48:16.140Z,94739.03
2022-12-03T08:50:42.671Z,94745.81
2022-12-03T08:53:19.660Z,94744.25
2022-12-03T08:55:48.510Z,94735.22
2022-12-03T08:58:21.577Z,94738.41
2022-12-03T09:00:48.210Z,94735.00
2022-12-03T09:03:16.425Z,94737.63
2022-12-03T09:05:42.903Z,94739.03
2022-12-03T09:08:09.471Z,94740.00
2022-12-03T09:10:35.994Z,94741.22
2022-12-03T09:13:03.873Z,94743.41
2022-12-03T09:15:32.436Z,94736.41
2022-12-03T09:17:58.908Z,94738.00
2022-12-03T09:20:25.387Z,94738.81
2022-12-03T09:22:51.826Z,94736.59
2022-12-03T09:25:18.286Z,94732.38
2022-12-03T09:27:44.748Z,94737.16
2022-12-03T09:30:12.999Z,94733.59
2022-12-03T09:32:39.477Z,94732.94
2022-12-03T09:35:06.555Z,94728.16
2022-12-03T09:37:32.998Z,94729.56
2022-12-03T09:39:59.703Z,94730.34
2022-12-03T09:42:26.230Z,94722.53
2022-12-03T09:44:53.408Z,94711.28
2022-12-03T09:47:21.484Z,94717.69
2022-12-03T09:49:48.051Z,94704.06
2022-12-03T09:52:22.377Z,94697.63
2022-12-03T09:54:49.114Z,94689.59
2022-12-03T09:57:16.785Z,94697.59
2022-12-03T09:59:43.319Z,94698.38
2022-12-03T10:02:16.981Z,94691.56
2022-12-03T10:04:44.950Z,94689.75
2022-12-03T10:07:11.637Z,94689.34
2022-12-03T10:09:38.189Z,94680.72
2022-12-03T10:12:05.049Z,94674.69
2022-12-03T10:14:31.897Z,94679.91
2022-12-03T10:16:59.309Z,94670.28
2022-12-03T10:19:27.437Z,94676.06
2022-12-03T10:21:55.743Z,94664.44
2022-12-03T10:24:25.673Z,94662.81
2022-12-03T10:26:53.775Z,94656.97
2022-12-03T10:29:21.344Z,94663.16
2022-12-03T10:31:54.650Z,94670.56
2022-12-03T10:34:24.200Z,94653.91
2022-12-03T10:37:08.218Z,94653.47
2022-12-03T10:39:55.735Z,94651.47
2022-12-03T10:42:23.455Z,94653.84
2022-12-03T10:44:53.765Z,94655.09
2022-12-03T10:47:22.553Z,94658.50
2022-12-03T10:50:01.258Z,94650.25
2022-12-03T10:52:29.443Z,94650.03
2022-12-03T10:54:56.401Z,94651.03
2022-12-03T10:57:23.300Z,94645.38
2022-12-03T10:59:49.853Z,94640.94
2022-12-03T11:02:19.996Z,94644.75
2022-12-03T11:04:46.587Z,94632.50
2022-12-03T11:07:15.020Z,94638.50
2022-12-03T11:09:44.535Z,94633.72
2022-12-03T11:12:17.821Z,94634.72
2022-12-03T11:15:06.695Z,94628.69
2022-12-03T11:17:47.054Z,94632.09
2022-12-03T11:20:28.383Z,94633.31
2022-12-03T11:22:55.599Z,94640.59
2022-12-03T11:25:45.635Z,94632.78
2022-12-03T11:28:30.816Z,94632.50
2022-12-03T11:30:58.564Z,94627.09
2022-12-03T11:33:26.096Z,94630.28
2022-12-03T11:36:08.026Z,94630.69
2022-12-03T11:38:53.684Z,94634.47
2022-12-03T11:41:23.649Z,94627.03
2022-12-03T11:44:09.003Z,94615.38
2022-12-03T11:46:40.610Z,94620.19
2022-12-03T11:49:21.328Z,94622.63
2022-12-03T11:51:48.200Z,94625.91
2022-12-03T11:54:15.804Z,94624.06
2022-12-03T11:56:45.885Z,94628.28
2022-12-03T11:59:12.556Z,94622.06
2022-12-03T12:01:39.713Z,94620.25
2022-12-03T12:04:07.540Z,94617.41
2022-12-03T12:06:39.769Z,94610.97
2022-12-03T12:09:06.266Z,94609.75
2022-12-03T12:11:33.653Z,94615.16
2022-12-03T12:14:01.775Z,94613.38
2022-12-03T12:16:39.251Z,94613.19
2022-12-03T12:19:20.652Z,94610.63
2022-12-03T12:21:48.062Z,94602.00
2022-12-03T12:24:43.044Z,94598.00
2022-12-03T12:27:10.241Z,94598.00
2022-12-03T12:29:38.984Z,94598.38
2022-12-03T12:32:14.949Z,94594.34
2022-12-03T12:34:42.400Z,94595.94
2022-12-03T12:37:10.389Z,94588.50
2022-12-03T12:39:36.964Z,94587.47
2022-12-03T12:42:06.407Z,94578.63
2022-12-03T12:44:32.910Z,94576.44
2022-12-03T12:47:02.233Z,94570.06
2022-12-03T12:49:29.504Z,94578.09
2022-12-03T12:51:56.019Z,94578.69
2022-12-03T12:54:22.582Z,94567.25
2022-12-03T12:56:50.186Z,94565.44
2022-12-03T12:59:18.001Z,94567.84
2022-12-03T13:01:45.620Z,94560.81
2022-12-03T13:04:14.733Z,94565.59
2022-12-03T13:06:41.740Z,94561.56
2022-12-03T13:09:12.473Z,94566.16
2022-12-03T13:11:42.006Z,94566.50
2022-12-03T13:14:12.396Z,94567.31
2022-12-03T13:16:39.106Z,94571.13
2022-12-03T13:19:13.258Z,94559.16
2022-12-03T13:21:42.616Z,94560.44
2022-12-03T13:24:26.090Z,94557.06
2022-12-03T13:26:52.677Z,94556.69
2022-12-03T13:29:20.369Z,94556.31
2022-12-03T13:31:48.749Z,94554.34
2022-12-03T13:34:16.719Z,94539.09
2022-12-03T13:36:45.652Z,94546.38
2022-12-03T13:39:19.141Z,94547.59
2022-12-03T13:42:04.839Z,94545.41
2022-12-03T13:44:32.159Z,94537.59
2022-12-03T13:47:00.533Z,94541.19
2022-12-03T13:49:27.018Z,94537.34
2022-12-03T13:51:54.834Z,94537.72
2022-12-03T13:54:22.812Z,94537.88
2022-12-03T13:56:49.586Z,94530.81
2022-12-03T13:59:19.337Z,94532.81
2022-12-03T14:01:48.339Z,94528.19
2022-12-03T14:04:14.958Z,94528.97
2022-12-03T14:06:41.447Z,94518.53
2022-12-03T14:09:09.303Z,94529.78
2022-12-03T14:11:54.648Z,94513.09
2022-12-03T14:14:21.158Z,94523.13
2022-12-03T14:16:47.785Z,94510.47
2022-12-03T14:19:14.419Z,94517.06
2022-12-03T14:21:41.122Z,94510.63
2022-12-03T14:24:09.032Z,94521.25
2022-12-03T14:26:35.489Z,94526.91
2022-12-03T14:29:07.209Z,94518.09
2022-12-03T14:31:35.473Z,94517.41
2022-12-03T14:34:02.262Z,94521.22
2022-12-03T14:36:28.750Z,94517.00
2022-12-03T14:38:55.675Z,94518.66
2022-12-03T14:41:42.079Z,94515.88
2022-12-03T14:44:08.580Z,94525.16
2022-12-03T14:46:35.078Z,94518.53
2022-12-03T14:49:01.543Z,94512.53
2022-12-03T14:51:28.096Z,94516.94
2022-12-03T14:53:54.612Z,94520.38
2022-12-03T14:56:21.072Z,94510.72
2022-12-03T14:58:49.174Z,94512.53
2022-12-03T15:01:15.718Z,94497.72
2022-12-03T15:03:42.310Z,94504.97
2022-12-03T15:06:08.794Z,94516.81
2022-12-03T15:08:35.333Z,94523.00
2022-12-03T15:11:01.963Z,94518.38
2022-12-03T15:13:28.516Z,94519.19
2022-12-03T15:15:56.369Z,94519.19
2022-12-03T15:18:22.937Z,94520.75
2022-12-03T15:20:49.712Z,94524.63
2022-12-03T15:23:16.202Z,94526.84
2022-12-03T15:25:42.747Z,94537.50
2022-12-03T15:28:09.739Z,94522.47
2022-12-03T15:30:36.188Z,94525.50
2022-12-03T15:33:04.297Z,94510.44
2022-12-03T15:35:30.796Z,94525.69
2022-12-03T15:37:57.450Z,94529.06
2022-12-03T15:40:24.080Z,94529.25
2022-12-03T15:42:50.721Z,94522.56
2022-12-03T15:45:17.619Z,94526.81
2022-12-03T15:47:44.547Z,94520.56
2022-12-03T15:50:14.095Z,94517.16
2022-12-03T15:52:40.585Z,94517.16
2022-12-03T15:55:07.580Z,94515.34
2022-12-03T15:57:34.051Z,94514.13
2022-12-03T16:00:00.699Z,94502.91
2022-12-03T16:02:33.597Z,94505.88
2022-12-03T16:05:00.422Z,94509.28
2022-12-03T16:07:28.717Z,94518.91
2022-12-03T16:09:56.174Z,94516.31
2022-12-03T16:12:23.211Z,94513.09
2022-12-03T16:14:49.822Z,94516.53
2022-12-03T16:17:16.671Z,94519.13
2022-12-03T16:19:43.243Z,94510.72
2022-12-03T16:22:09.935Z,94511.50
2022-12-03T16:24:46.118Z,94528.97
2022-12-03T16:27:14.940Z,94519.53
